Saturday, November 17, 2018, 7:33 AM GMT
Back to Local

CXSH, Shawinigan CS , Que.

Location: , , Canada Lat: 46.583
Local Time: 7:33 AM GMT ( 7:33 GMT) Lon: -72.583
Time Zone: GMT Elev: 360 ft

Show me the last for .
Show Coded

Time T Td Feel RH Dir Speed Gust Alt SLP Vis Weather Sky Remarks
2018-11-17 07:00 21 19 - 90 170° 1 - - 29.72 0 None
2018-11-17 06:00 24 19 18 82 210° 5 - - 29.71 0 None
2018-11-17 05:00 22 20 18 89 230° 3 - - 29.70 0 None
2018-11-17 04:00 23 20 - 89 260° 2 - - 29.67 0 None
2018-11-17 03:00 23 22 - 97 310° 1 - - 29.67 0 None
2018-11-17 02:00 23 20 - 89 - Calm - - 29.66 0 None
2018-11-17 01:00 23 21 - 91 280° 1 - - 29.66 0 None
2018-11-17 00:00 23 20 - 90 - Calm - - 29.65 0 None
2018-11-16 23:00 23 22 - 97 40° 2 - - 29.65 0 None
2018-11-16 22:00 23 22 18 97 40° 3 - - 29.65 0 None
2018-11-16 21:00 23 22 17 95 60° 5 - - 29.66 0 None
2018-11-16 20:00 23 20 14 85 70° 8 - - 29.67 0 None
2018-11-16 19:00 24 19 16 81 80° 7 - - 29.69 0 None
2018-11-16 18:00 26 20 18 77 60° 7 - - 29.72 0 None
2018-11-16 17:00 23 20 15 87 60° 7 - - 29.74 0 None
2018-11-16 16:00 22 19 13 85 50° 8 - - 29.78 0 None
2018-11-16 15:00 22 19 13 88 50° 7 - - 29.82 0 None
2018-11-16 14:00 21 18 12 87 50° 7 - - 29.85 0 None
2018-11-16 13:00 20 19 11 94 50° 7 - - 29.90 0 None
2018-11-16 12:00 20 17 12 89 60° 6 - - 29.93 0 None
2018-11-16 11:00 20 16 12 84 70° 6 - - 29.96 0 None
2018-11-16 10:00 20 13 13 73 70° 6 - - 29.98 0 None
2018-11-16 09:00 19 15 13 82 50° 5 - - 29.99 0 None
2018-11-16 08:00 18 13 10 78 50° 6 - - 30.05 0 None

Support USWX by starting your Amazon purchase here.